createdAt,value
2018-01-24T00:04:43.185Z,99762.01
2018-01-24T00:10:48.069Z,99748.36
2018-01-24T00:16:52.403Z,99753.59
2018-01-24T00:22:55.847Z,99743.36
2018-01-24T00:28:59.333Z,99722.94
2018-01-24T00:35:02.759Z,99742.27
2018-01-24T00:41:06.211Z,99731.87
2018-01-24T00:47:09.638Z,99726.86
2018-01-24T00:53:13.116Z,99731.88
2018-01-24T00:59:16.725Z,99737.45
2018-01-24T01:05:20.921Z,99744.53
2018-01-24T01:11:24.434Z,99768.12
2018-01-24T01:17:27.949Z,99768.20
2018-01-24T01:23:31.622Z,99762.54
2018-01-24T01:29:35.088Z,99753.29
2018-01-24T01:35:38.936Z,99762.36
2018-01-24T01:41:42.645Z,99737.20
2018-01-24T01:47:46.102Z,99734.61
2018-01-24T01:53:49.560Z,99732.52
2018-01-24T01:59:53.015Z,99721.77
2018-01-24T02:05:56.443Z,99720.43
2018-01-24T02:12:00.658Z,99723.69
2018-01-24T02:18:04.103Z,99722.45
2018-01-24T02:24:07.680Z,99713.44
2018-01-24T02:30:11.288Z,99717.85
2018-01-24T02:36:15.513Z,99705.07
2018-01-24T02:42:19.109Z,99692.66
2018-01-24T02:48:22.638Z,99691.08
2018-01-24T02:54:26.066Z,99691.17
2018-01-24T03:00:29.582Z,99697.16
2018-01-24T03:06:33.050Z,99695.81
2018-01-24T03:12:36.523Z,99688.55
2018-01-24T03:18:39.998Z,99686.80
2018-01-24T03:24:43.756Z,99677.12
2018-01-24T03:30:47.322Z,99693.86
2018-01-24T03:36:50.807Z,99695.59
2018-01-24T03:42:55.059Z,99705.70
2018-01-24T03:48:59.413Z,99707.38
2018-01-24T03:55:02.870Z,99702.15
2018-01-24T04:01:06.335Z,99701.37
2018-01-24T04:07:09.894Z,99696.29
2018-01-24T04:13:13.406Z,99675.17
2018-01-24T04:19:16.892Z,99670.66
2018-01-24T04:25:20.349Z,99674.06
2018-01-24T04:31:23.835Z,99681.23
2018-01-24T04:37:27.410Z,99674.78
2018-01-24T04:43:31.025Z,99678.05
2018-01-24T04:49:36.006Z,99673.05
2018-01-24T04:55:39.533Z,99665.30
2018-01-24T05:01:43.347Z,99680.23
2018-01-24T05:07:48.435Z,99683.63
2018-01-24T05:13:52.657Z,99680.33
2018-01-24T05:19:56.185Z,99682.82
2018-01-24T05:25:59.619Z,99679.94
2018-01-24T05:32:03.099Z,99680.86
2018-01-24T05:38:06.759Z,99695.84
2018-01-24T05:44:10.211Z,99702.52
2018-01-24T05:50:15.068Z,99715.88
2018-01-24T05:56:18.790Z,99714.13
2018-01-24T06:02:22.317Z,99703.90
2018-01-24T06:08:25.764Z,99712.66
2018-01-24T06:14:29.286Z,99725.16
2018-01-24T06:20:32.747Z,99723.09
2018-01-24T06:26:36.198Z,99725.77
2018-01-24T06:32:40.416Z,99721.66
2018-01-24T06:38:43.823Z,99718.94
2018-01-24T06:44:47.271Z,99702.12
2018-01-24T06:50:51.478Z,99702.88
2018-01-24T06:56:54.884Z,99703.90
2018-01-24T07:02:58.312Z,99702.52
2018-01-24T07:09:01.704Z,99692.25
2018-01-24T07:15:05.184Z,99683.48
2018-01-24T07:21:09.356Z,99692.50
2018-01-24T07:27:12.746Z,99680.28
2018-01-24T07:33:16.915Z,99684.41
2018-01-24T07:39:20.311Z,99682.34
2018-01-24T07:45:23.772Z,99667.32
2018-01-24T07:51:27.150Z,99669.84
2018-01-24T07:57:30.574Z,99680.47
2018-01-24T08:03:33.979Z,99675.70
2018-01-24T08:09:38.167Z,99683.02
2018-01-24T08:15:41.556Z,99674.60
2018-01-24T08:21:44.985Z,99663.02
2018-01-24T08:27:48.430Z,99675.58
2018-01-24T08:33:51.869Z,99679.42
2018-01-24T08:39:55.278Z,99682.20
2018-01-24T08:45:58.708Z,99688.63
2018-01-24T08:52:02.132Z,99693.28
2018-01-24T08:58:05.534Z,99683.72
2018-01-24T09:04:08.930Z,99675.06
2018-01-24T09:10:12.333Z,99687.55
2018-01-24T09:16:15.759Z,99692.84
2018-01-24T09:22:19.158Z,99686.32
2018-01-24T09:28:22.552Z,99688.66
2018-01-24T09:34:26.730Z,99677.02
2018-01-24T09:40:30.136Z,99679.27
2018-01-24T09:46:33.540Z,99676.02
2018-01-24T09:52:36.926Z,99678.17
2018-01-24T09:58:40.354Z,99675.08
2018-01-24T10:04:43.797Z,99671.36
2018-01-24T10:10:47.228Z,99666.24
2018-01-24T10:16:50.647Z,99661.33
2018-01-24T10:22:54.068Z,99651.58
2018-01-24T10:28:57.481Z,99654.21
2018-01-24T10:35:00.900Z,99645.43
2018-01-24T10:41:04.333Z,99640.81
2018-01-24T10:47:07.756Z,99633.19
2018-01-24T10:53:11.164Z,99624.28
2018-01-24T10:59:14.584Z,99618.53
2018-01-24T11:05:18.006Z,99600.05
2018-01-24T11:11:21.409Z,99593.65
2018-01-24T11:17:24.837Z,99570.94
2018-01-24T11:23:28.262Z,99562.55
2018-01-24T11:29:31.689Z,99551.41
2018-01-24T11:35:35.106Z,99537.48
2018-01-24T11:41:38.535Z,99532.66
2018-01-24T11:47:41.956Z,99522.45
2018-01-24T11:53:45.384Z,99508.28
2018-01-24T11:59:48.787Z,99509.55
2018-01-24T12:05:52.196Z,99497.85
2018-01-24T12:11:55.875Z,99493.36
2018-01-24T12:17:59.285Z,99473.63
2018-01-24T12:24:02.688Z,99466.57
2018-01-24T12:30:06.122Z,99453.39
2018-01-24T12:36:09.540Z,99439.05
2018-01-24T12:42:12.965Z,99426.75
2018-01-24T12:48:16.383Z,99417.45
2018-01-24T12:54:19.784Z,99413.83
2018-01-24T13:00:23.186Z,99416.33
2018-01-24T13:06:26.585Z,99400.89
2018-01-24T13:12:30.010Z,99396.72
2018-01-24T13:18:33.447Z,99388.11
2018-01-24T13:24:36.839Z,99389.43
2018-01-24T13:30:40.248Z,99388.61
2018-01-24T13:36:44.434Z,99370.38
2018-01-24T13:42:47.823Z,99372.44
2018-01-24T13:48:51.231Z,99361.46
2018-01-24T13:54:54.651Z,99355.89
2018-01-24T14:00:58.053Z,99349.58
2018-01-24T14:07:02.474Z,99336.44
2018-01-24T14:13:05.897Z,99325.48
2018-01-24T14:19:09.303Z,99310.09
2018-01-24T14:25:12.747Z,99307.43
2018-01-24T14:31:16.919Z,99298.05
2018-01-24T14:37:20.336Z,99310.86
2018-01-24T14:43:23.756Z,99308.28
2018-01-24T14:49:27.204Z,99301.97
2018-01-24T14:55:30.609Z,99298.86
2018-01-24T15:01:34.015Z,99289.78
2018-01-24T15:07:37.419Z,99279.88
2018-01-24T15:13:40.852Z,99273.12
2018-01-24T15:19:44.284Z,99249.48
2018-01-24T15:25:47.691Z,99232.33
2018-01-24T15:31:51.169Z,99223.36
2018-01-24T15:37:55.393Z,99214.98
2018-01-24T15:43:58.825Z,99208.05
2018-01-24T15:50:02.996Z,99207.33
2018-01-24T15:56:06.390Z,99207.35
2018-01-24T16:02:10.562Z,99195.38
2018-01-24T16:08:13.961Z,99183.57
2018-01-24T16:14:17.374Z,99185.73
2018-01-24T17:12:32.065Z,99174.52
2018-01-24T17:18:35.535Z,99171.29
2018-01-24T17:24:39.074Z,99188.53
2018-01-24T17:30:42.694Z,99197.63
2018-01-24T17:36:46.148Z,99182.23
2018-01-24T17:42:49.572Z,99159.81
2018-01-24T17:48:53.002Z,99148.47
2018-01-24T17:54:57.188Z,99147.94
2018-01-24T18:01:00.595Z,99149.28
2018-01-24T18:07:03.991Z,99145.17
2018-01-24T18:13:08.182Z,99125.63
2018-01-24T18:19:11.846Z,99136.79
2018-01-24T18:25:16.090Z,99132.76
2018-01-24T18:31:20.306Z,99132.05
2018-01-24T18:37:23.733Z,99118.95
2018-01-24T18:43:27.938Z,99127.72
2018-01-24T18:49:31.366Z,99131.64
2018-01-24T18:55:34.772Z,99118.09
2018-01-24T19:01:38.173Z,99119.06
2018-01-24T19:07:41.588Z,99109.55
2018-01-24T19:13:45.042Z,99098.28
2018-01-24T19:19:48.484Z,99087.14
2018-01-24T19:25:52.674Z,99084.75
2018-01-24T19:31:56.107Z,99080.50
2018-01-24T19:37:59.566Z,99065.32
2018-01-24T19:44:03.751Z,99066.06
2018-01-24T19:50:08.131Z,99044.50
2018-01-24T19:56:12.321Z,99044.17
2018-01-24T20:02:15.719Z,99043.34
2018-01-24T20:08:19.108Z,99039.92
2018-01-24T20:14:23.358Z,99034.13
2018-01-24T20:20:27.559Z,99033.13
2018-01-24T20:26:30.987Z,99037.88
2018-01-24T20:32:34.426Z,99031.90
2018-01-24T20:38:37.838Z,99041.08
2018-01-24T20:44:41.247Z,99025.12
2018-01-24T20:50:44.672Z,99014.91
2018-01-24T20:56:48.112Z,99016.25
2018-01-24T21:02:52.281Z,99001.48
2018-01-24T21:08:55.687Z,98981.80
2018-01-24T21:14:59.096Z,98979.23
2018-01-24T21:21:02.527Z,98983.17
2018-01-24T21:27:05.943Z,98971.44
2018-01-24T21:33:27.218Z,98945.05
2018-01-24T21:39:30.629Z,98956.73
2018-01-24T21:45:34.036Z,98962.20
2018-01-24T21:51:37.516Z,98950.80
2018-01-24T21:57:41.698Z,98951.20
2018-01-24T22:03:45.117Z,98972.23
2018-01-24T22:09:48.536Z,98975.02
2018-01-24T22:15:51.946Z,98984.89
2018-01-24T22:21:55.663Z,98986.34
2018-01-24T22:27:59.078Z,98969.75
2018-01-24T22:34:02.513Z,98962.22
2018-01-24T22:40:05.997Z,98986.27
2018-01-24T22:46:10.208Z,98976.02
2018-01-24T22:52:13.632Z,98966.86
2018-01-24T22:58:17.054Z,98970.12
2018-01-24T23:04:20.484Z,98972.50
2018-01-24T23:10:24.683Z,98993.01
2018-01-24T23:16:28.100Z,98992.27
2018-01-24T23:22:31.528Z,98987.23
2018-01-24T23:28:34.956Z,98976.69
2018-01-24T23:34:38.379Z,98978.86
2018-01-24T23:40:41.822Z,98972.74
2018-01-24T23:46:45.259Z,98983.66
2018-01-24T23:52:48.681Z,98960.45
2018-01-24T23:58:52.092Z,98969.20
